Time;durP1;ratioP1;P1;durP2;ratioP2;P2;SDS_P1;SDS_P2;PMS_P1;PMS_P2;Temp;Humidity;BMP_temperature;BMP_pressure;BME280_temperature;BME280_humidity;BME280_pressure;Samples;Min_cycle;Max_cycle;Signal;HPM_P1;HPM_P2
2021/03/07 00:01:32;;;;;;;;;;;22.80;34.20;;;;;;1614906;73;718;-57
2021/03/07 00:03:34;;;;;;;;;;;22.90;34.20;;;;;;1614774;73;818;-59
2021/03/07 00:05:36;;;;;;;;;;;23.00;34.20;;;;;;1608164;73;775;-60
2021/03/07 00:07:38;;;;;;;;;;;22.90;34.00;;;;;;1622562;73;734;-60
2021/03/07 00:09:39;;;;;;;;;;;23.00;34.00;;;;;;1619823;73;1942;-59
2021/03/07 00:11:41;;;;;;;;;;;23.00;33.90;;;;;;1620140;73;629;-60
2021/03/07 00:13:43;;;;;;;;;;;23.00;33.90;;;;;;1608638;73;764;-58
2021/03/07 00:15:45;;;;;;;;;;;23.00;34.20;;;;;;1598270;73;735;-57
2021/03/07 00:17:47;;;;;;;;;;;22.90;34.20;;;;;;1610126;73;756;-58
2021/03/07 00:19:49;;;;;;;;;;;22.90;34.20;;;;;;1614206;73;1163;-56
2021/03/07 00:21:51;;;;;;;;;;;22.90;34.20;;;;;;1606896;73;725;-58
2021/03/07 00:23:53;;;;;;;;;;;22.90;34.40;;;;;;1602104;73;784;-59
2021/03/07 00:25:55;;;;;;;;;;;22.90;34.90;;;;;;1602699;73;810;-60
2021/03/07 00:27:57;;;;;;;;;;;22.80;34.70;;;;;;1609130;73;746;-59
2021/03/07 00:29:59;;;;;;;;;;;22.80;34.50;;;;;;1610416;73;1935;-57
2021/03/07 00:32:00;;;;;;;;;;;22.80;34.70;;;;;;1604152;73;787;-60
2021/03/07 00:34:02;;;;;;;;;;;22.80;35.00;;;;;;1604056;73;788;-59
2021/03/07 00:36:04;;;;;;;;;;;22.80;34.80;;;;;;1614074;73;722;-57
2021/03/07 00:38:06;;;;;;;;;;;22.80;35.00;;;;;;1612923;73;814;-58
2021/03/07 00:40:08;;;;;;;;;;;22.80;34.90;;;;;;1623850;72;1105;-60
2021/03/07 00:42:10;;;;;;;;;;;22.70;35.00;;;;;;1611230;72;739;-58
2021/03/07 00:44:12;;;;;;;;;;;22.70;35.00;;;;;;1596207;73;755;-57
2021/03/07 00:46:14;;;;;;;;;;;22.80;34.90;;;;;;1624215;73;730;-58
2021/03/07 00:48:16;;;;;;;;;;;22.70;35.00;;;;;;1618371;73;766;-58
2021/03/07 00:50:24;;;;;;;;;;;22.70;35.00;;;;;;1613814;72;1949;-58
2021/03/07 00:52:26;;;;;;;;;;;22.80;34.90;;;;;;1599740;73;754;-60
2021/03/07 00:54:28;;;;;;;;;;;22.80;35.00;;;;;;1626454;73;691;-59
2021/03/07 00:56:30;;;;;;;;;;;22.70;35.00;;;;;;1620348;73;662;-59
2021/03/07 00:58:31;;;;;;;;;;;22.80;34.90;;;;;;1624045;73;752;-57
2021/03/07 01:00:33;;;;;;;;;;;22.80;34.70;;;;;;1612210;73;1129;-57
2021/03/07 01:02:35;;;;;;;;;;;22.90;34.60;;;;;;1610908;73;750;-59
2021/03/07 01:04:37;;;;;;;;;;;22.90;34.70;;;;;;1608368;73;770;-60
2021/03/07 01:06:39;;;;;;;;;;;22.80;34.50;;;;;;1601166;73;714;-58
2021/03/07 01:08:41;;;;;;;;;;;22.80;34.60;;;;;;1605378;73;703;-58
2021/03/07 01:10:43;;;;;;;;;;;22.80;34.70;;;;;;1609456;73;2108;-59
2021/03/07 01:12:48;;;;;;;;;;;22.70;34.70;;;;;;1622904;73;700;-59
2021/03/07 01:14:50;;;;;;;;;;;22.70;34.70;;;;;;1620257;72;760;-60
2021/03/07 01:16:52;;;;;;;;;;;22.80;34.70;;;;;;1616509;73;784;-57
2021/03/07 01:18:54;;;;;;;;;;;22.70;34.80;;;;;;1614410;73;724;-59
2021/03/07 01:20:56;;;;;;;;;;;22.70;34.70;;;;;;1602228;73;1150;-58
2021/03/07 01:22:58;;;;;;;;;;;22.70;34.90;;;;;;1621725;73;727;-59
2021/03/07 01:24:59;;;;;;;;;;;22.70;34.80;;;;;;1614916;73;707;-60
2021/03/07 01:27:01;;;;;;;;;;;22.80;34.70;;;;;;1620302;73;667;-58
2021/03/07 01:29:03;;;;;;;;;;;22.80;34.70;;;;;;1606712;72;1305;-56
2021/03/07 01:31:05;;;;;;;;;;;22.80;34.70;;;;;;1618705;73;1947;-59
2021/03/07 01:33:08;;;;;;;;;;;22.70;34.60;;;;;;1613198;73;790;-58
2021/03/07 01:35:10;;;;;;;;;;;22.80;34.60;;;;;;1604547;73;735;-58
2021/03/07 01:37:12;;;;;;;;;;;22.70;34.60;;;;;;1611635;73;698;-60
2021/03/07 01:39:14;;;;;;;;;;;22.70;34.70;;;;;;1607400;73;1185;-57
2021/03/07 01:41:16;;;;;;;;;;;22.80;34.60;;;;;;1603349;73;719;-56
2021/03/07 01:43:19;;;;;;;;;;;22.80;34.50;;;;;;1616300;72;631;-59
2021/03/07 01:45:21;;;;;;;;;;;22.80;34.50;;;;;;1613108;73;751;-57
2021/03/07 01:47:24;;;;;;;;;;;22.90;34.50;;;;;;1609804;73;709;-58
2021/03/07 01:49:26;;;;;;;;;;;22.90;34.40;;;;;;1612999;73;1979;-60
2021/03/07 01:51:28;;;;;;;;;;;23.00;34.30;;;;;;1599378;73;1937;-60
2021/03/07 01:53:30;;;;;;;;;;;23.00;34.20;;;;;;1607667;73;747;-59
2021/03/07 01:55:33;;;;;;;;;;;23.00;34.20;;;;;;1606473;73;761;-60
2021/03/07 01:57:37;;;;;;;;;;;22.90;34.20;;;;;;1623993;73;707;-57
2021/03/07 01:59:38;;;;;;;;;;;23.00;34.20;;;;;;1624546;73;1139;-55
2021/03/07 02:01:42;;;;;;;;;;;22.90;34.20;;;;;;1623731;73;697;-60
2021/03/07 02:03:51;;;;;;;;;;;22.90;34.20;;;;;;1617191;73;892;-58
2021/03/07 02:05:53;;;;;;;;;;;22.90;34.20;;;;;;1612657;73;836;-57
2021/03/07 02:07:55;;;;;;;;;;;22.90;34.50;;;;;;1619766;73;717;-59
2021/03/07 02:09:57;;;;;;;;;;;22.90;34.40;;;;;;1622779;73;1124;-58
2021/03/07 02:11:59;;;;;;;;;;;22.90;34.40;;;;;;1623749;73;1924;-56
2021/03/07 02:14:01;;;;;;;;;;;22.90;34.40;;;;;;1624108;72;703;-59
2021/03/07 02:16:04;;;;;;;;;;;22.90;34.40;;;;;;1620298;73;794;-59
2021/03/07 02:18:06;;;;;;;;;;;22.90;34.20;;;;;;1622406;73;671;-59
2021/03/07 02:20:08;;;;;;;;;;;22.90;34.30;;;;;;1619356;73;1181;-59
2021/03/07 02:22:12;;;;;;;;;;;22.90;34.20;;;;;;1625803;73;762;-59
2021/03/07 02:24:14;;;;;;;;;;;22.80;34.20;;;;;;1618570;73;752;-60
2021/03/07 02:26:16;;;;;;;;;;;22.90;34.40;;;;;;1624821;73;712;-60
2021/03/07 02:28:18;;;;;;;;;;;22.90;34.30;;;;;;1622140;73;718;-58
2021/03/07 02:30:21;;;;;;;;;;;22.80;34.20;;;;;;1625364;72;1149;-59
2021/03/07 02:32:23;;;;;;;;;;;22.90;34.10;;;;;;1616550;73;1928;-59
2021/03/07 02:34:34;;;;;;;;;;;22.90;34.00;;;;;;1619640;73;794;-59
2021/03/07 02:36:43;;;;;;;;;;;23.00;33.90;;;;;;1617656;73;729;-59
2021/03/07 02:38:45;;;;;;;;;;;23.00;33.70;;;;;;1626451;73;755;-59
2021/03/07 02:40:47;;;;;;;;;;;23.00;33.80;;;;;;1623153;72;1074;-59
2021/03/07 02:42:49;;;;;;;;;;;23.10;33.70;;;;;;1621471;73;712;-59
2021/03/07 02:44:55;;;;;;;;;;;23.10;33.60;;;;;;1624743;73;764;-59
2021/03/07 02:46:57;;;;;;;;;;;23.10;33.50;;;;;;1622180;73;786;-58
2021/03/07 02:48:59;;;;;;;;;;;23.10;33.50;;;;;;1624710;73;738;-59
2021/03/07 02:51:02;;;;;;;;;;;23.10;33.50;;;;;;1622766;73;1927;-57
2021/03/07 02:53:05;;;;;;;;;;;23.00;33.40;;;;;;1625399;73;755;-59
2021/03/07 02:55:07;;;;;;;;;;;23.00;33.40;;;;;;1619629;72;700;-57
2021/03/07 02:57:09;;;;;;;;;;;23.00;33.50;;;;;;1624937;73;652;-57
2021/03/07 02:59:11;;;;;;;;;;;23.00;33.50;;;;;;1625948;72;1140;-58
2021/03/07 03:01:14;;;;;;;;;;;23.00;33.60;;;;;;1623356;73;769;-57
2021/03/07 03:03:17;;;;;;;;;;;23.00;33.60;;;;;;1621286;73;836;-57
2021/03/07 03:05:19;;;;;;;;;;;22.80;33.60;;;;;;1623822;73;786;-58
2021/03/07 03:07:21;;;;;;;;;;;22.80;33.70;;;;;;1617023;73;786;-59
2021/03/07 03:09:23;;;;;;;;;;;22.80;33.80;;;;;;1617375;72;1115;-58
2021/03/07 03:11:25;;;;;;;;;;;22.80;33.90;;;;;;1618532;73;1913;-59
2021/03/07 03:13:27;;;;;;;;;;;22.80;34.00;;;;;;1621941;73;704;-60
2021/03/07 03:15:29;;;;;;;;;;;22.80;33.80;;;;;;1622054;73;759;-59
2021/03/07 03:17:31;;;;;;;;;;;22.80;33.90;;;;;;1624125;73;720;-60
2021/03/07 03:19:34;;;;;;;;;;;22.90;34.10;;;;;;1617370;72;1153;-59
2021/03/07 03:21:36;;;;;;;;;;;22.90;33.90;;;;;;1618526;73;693;-60
2021/03/07 03:23:38;;;;;;;;;;;22.90;33.90;;;;;;1624307;73;723;-59
2021/03/07 03:25:40;;;;;;;;;;;22.90;33.90;;;;;;1609865;73;791;-59
2021/03/07 03:27:42;;;;;;;;;;;22.90;33.90;;;;;;1616187;73;787;-60
2021/03/07 03:29:44;;;;;;;;;;;22.90;33.90;;;;;;1619733;73;1189;-59
2021/03/07 03:31:45;;;;;;;;;;;22.90;33.90;;;;;;1605091;73;1937;-59
2021/03/07 03:33:47;;;;;;;;;;;22.90;33.90;;;;;;1603075;73;778;-59
2021/03/07 03:35:50;;;;;;;;;;;23.10;34.00;;;;;;1602313;73;744;-58
2021/03/07 03:37:52;;;;;;;;;;;22.90;33.90;;;;;;1614053;73;745;-60
2021/03/07 03:39:54;;;;;;;;;;;22.80;33.90;;;;;;1610177;73;1156;-59
2021/03/07 03:41:57;;;;;;;;;;;22.90;34.20;;;;;;1612614;73;654;-59
2021/03/07 03:43:59;;;;;;;;;;;22.90;34.30;;;;;;1605037;73;728;-59
2021/03/07 03:46:02;;;;;;;;;;;22.90;34.40;;;;;;1613360;73;806;-59
2021/03/07 03:48:06;;;;;;;;;;;22.80;34.40;;;;;;1579650;74;757;-59
2021/03/07 03:50:08;;;;;;;;;;;22.90;34.60;;;;;;1604166;73;1910;-58
2021/03/07 03:52:10;;;;;;;;;;;22.90;34.60;;;;;;1621740;73;1939;-58
2021/03/07 03:54:12;;;;;;;;;;;22.90;34.40;;;;;;1612103;73;744;-59
2021/03/07 03:56:15;;;;;;;;;;;22.90;34.60;;;;;;1616662;73;730;-58
2021/03/07 03:58:17;;;;;;;;;;;22.90;34.60;;;;;;1612296;73;925;-58
2021/03/07 04:00:21;;;;;;;;;;;22.90;34.60;;;;;;1623980;73;1229;-58
2021/03/07 04:02:23;;;;;;;;;;;22.90;34.50;;;;;;1624319;73;1778;-59
2021/03/07 04:04:26;;;;;;;;;;;23.00;34.40;;;;;;1611371;73;813;-59
2021/03/07 04:06:27;;;;;;;;;;;22.90;34.40;;;;;;1604171;73;747;-59
2021/03/07 04:08:29;;;;;;;;;;;22.90;34.40;;;;;;1613552;73;747;-58
2021/03/07 04:10:31;;;;;;;;;;;22.90;34.30;;;;;;1614162;72;1137;-57
2021/03/07 04:12:33;;;;;;;;;;;23.00;34.30;;;;;;1603026;73;1948;-59
2021/03/07 04:14:35;;;;;;;;;;;22.90;34.30;;;;;;1614150;73;796;-59
2021/03/07 04:16:37;;;;;;;;;;;22.90;34.30;;;;;;1607061;73;775;-59
2021/03/07 04:18:39;;;;;;;;;;;22.90;34.30;;;;;;1604956;73;776;-59
2021/03/07 04:20:41;;;;;;;;;;;23.00;34.20;;;;;;1609909;72;1082;-60
2021/03/07 04:22:43;;;;;;;;;;;22.90;34.40;;;;;;1615877;73;715;-59
2021/03/07 04:24:45;;;;;;;;;;;22.90;34.50;;;;;;1615655;73;775;-60
2021/03/07 04:26:47;;;;;;;;;;;23.00;34.50;;;;;;1607761;73;778;-61
2021/03/07 04:28:49;;;;;;;;;;;23.00;34.40;;;;;;1608210;73;776;-60
2021/03/07 04:30:51;;;;;;;;;;;22.90;34.50;;;;;;1622196;72;1157;-59
2021/03/07 04:32:53;;;;;;;;;;;23.00;34.40;;;;;;1619234;72;1921;-61
2021/03/07 04:34:55;;;;;;;;;;;23.00;34.30;;;;;;1612700;73;742;-59
2021/03/07 04:36:56;;;;;;;;;;;23.00;34.50;;;;;;1603423;73;790;-58
2021/03/07 04:38:58;;;;;;;;;;;23.00;34.40;;;;;;1610411;73;735;-59
2021/03/07 04:41:00;;;;;;;;;;;23.00;34.50;;;;;;1611333;73;753;-58
2021/03/07 04:43:02;;;;;;;;;;;23.00;34.40;;;;;;1609003;73;782;-59
2021/03/07 04:45:04;;;;;;;;;;;23.00;34.50;;;;;;1614599;73;928;-59
2021/03/07 04:47:06;;;;;;;;;;;23.00;34.40;;;;;;1621563;73;759;-59
2021/03/07 04:49:08;;;;;;;;;;;22.90;34.40;;;;;;1617381;72;1122;-59
2021/03/07 04:51:10;;;;;;;;;;;23.00;34.40;;;;;;1611660;72;669;-59
2021/03/07 04:53:12;;;;;;;;;;;23.00;34.30;;;;;;1609308;73;1916;-59
2021/03/07 04:55:14;;;;;;;;;;;23.00;34.20;;;;;;1603952;72;802;-59
2021/03/07 04:57:16;;;;;;;;;;;23.00;34.20;;;;;;1617201;73;759;-59
2021/03/07 04:59:17;;;;;;;;;;;23.00;34.20;;;;;;1578387;74;1168;-58
2021/03/07 05:01:19;;;;;;;;;;;23.00;34.10;;;;;;1609807;73;724;-59
2021/03/07 05:03:21;;;;;;;;;;;23.00;34.20;;;;;;1607403;73;739;-58
2021/03/07 05:05:23;;;;;;;;;;;23.00;34.20;;;;;;1601717;73;791;-60
2021/03/07 05:07:25;;;;;;;;;;;23.10;34.20;;;;;;1609760;73;803;-59
2021/03/07 05:09:27;;;;;;;;;;;23.00;34.10;;;;;;1620265;73;1181;-58
2021/03/07 05:11:29;;;;;;;;;;;23.00;34.10;;;;;;1612989;73;1933;-58
2021/03/07 05:13:31;;;;;;;;;;;23.00;34.00;;;;;;1621607;73;751;-60
2021/03/07 05:15:32;;;;;;;;;;;23.10;34.20;;;;;;1618287;73;738;-59
2021/03/07 05:17:35;;;;;;;;;;;23.00;34.00;;;;;;1619323;73;807;-59
2021/03/07 05:19:36;;;;;;;;;;;23.10;34.00;;;;;;1623640;73;1132;-61
2021/03/07 05:21:38;;;;;;;;;;;23.10;34.30;;;;;;1621804;73;736;-59
2021/03/07 05:23:40;;;;;;;;;;;23.10;34.20;;;;;;1618036;73;720;-59
2021/03/07 05:25:42;;;;;;;;;;;23.10;34.10;;;;;;1625277;73;910;-60
2021/03/07 05:27:44;;;;;;;;;;;23.10;34.00;;;;;;1613724;73;756;-58
2021/03/07 05:29:46;;;;;;;;;;;23.10;34.00;;;;;;1615903;73;1074;-57
2021/03/07 05:31:48;;;;;;;;;;;23.10;34.00;;;;;;1617016;73;1919;-60
2021/03/07 05:33:50;;;;;;;;;;;23.20;33.90;;;;;;1611109;73;774;-59
2021/03/07 05:35:51;;;;;;;;;;;23.10;34.00;;;;;;1614595;73;815;-59
2021/03/07 05:37:53;;;;;;;;;;;23.10;33.90;;;;;;1607406;73;766;-59
2021/03/07 05:39:55;;;;;;;;;;;23.20;33.80;;;;;;1617609;73;1239;-60
2021/03/07 05:41:57;;;;;;;;;;;23.20;33.70;;;;;;1616173;73;750;-58
2021/03/07 05:43:59;;;;;;;;;;;23.20;33.70;;;;;;1616522;73;740;-58
2021/03/07 05:46:01;;;;;;;;;;;23.20;33.70;;;;;;1618948;73;800;-58
2021/03/07 05:48:03;;;;;;;;;;;23.20;33.90;;;;;;1607728;73;794;-60
2021/03/07 05:50:05;;;;;;;;;;;23.20;33.80;;;;;;1615206;72;1160;-57
2021/03/07 05:52:07;;;;;;;;;;;23.20;33.70;;;;;;1615251;73;1910;-58
2021/03/07 05:54:10;;;;;;;;;;;23.20;33.80;;;;;;1616716;73;786;-59
2021/03/07 05:56:12;;;;;;;;;;;23.20;33.70;;;;;;1607235;73;733;-57
2021/03/07 05:58:13;;;;;;;;;;;23.20;33.60;;;;;;1622772;72;760;-58
2021/03/07 06:00:17;;;;;;;;;;;23.20;33.70;;;;;;1601820;73;1162;-60
2021/03/07 06:02:19;;;;;;;;;;;23.20;33.70;;;;;;1612129;73;1198;-60
2021/03/07 06:04:21;;;;;;;;;;;23.20;33.90;;;;;;1608050;73;750;-60
2021/03/07 06:06:24;;;;;;;;;;;23.20;33.60;;;;;;1617989;73;656;-59
2021/03/07 06:08:26;;;;;;;;;;;23.20;33.50;;;;;;1613424;73;1844;-60
2021/03/07 06:10:28;;;;;;;;;;;23.30;33.60;;;;;;1608023;73;1134;-59
2021/03/07 06:12:30;;;;;;;;;;;23.30;33.70;;;;;;1605673;73;1941;-60
2021/03/07 06:14:35;;;;;;;;;;;23.30;33.50;;;;;;1608569;73;782;-59
2021/03/07 06:16:37;;;;;;;;;;;23.30;33.60;;;;;;1610302;73;718;-57
2021/03/07 06:18:39;;;;;;;;;;;23.30;33.50;;;;;;1611502;73;738;-57
2021/03/07 06:20:41;;;;;;;;;;;23.20;33.40;;;;;;1597785;73;1088;-57
2021/03/07 06:22:53;;;;;;;;;;;23.40;33.40;;;;;;1619876;73;768;-57
2021/03/07 06:24:55;;;;;;;;;;;23.40;33.60;;;;;;1616707;73;770;-59
2021/03/07 06:27:04;;;;;;;;;;;23.30;33.40;;;;;;1609151;73;688;-59
2021/03/07 06:29:07;;;;;;;;;;;23.30;33.40;;;;;;1607566;73;1073;-58
2021/03/07 06:31:27;;;;;;;;;;;23.40;33.40;;;;;;1612483;73;1622;-59
2021/03/07 06:33:33;;;;;;;;;;;23.30;33.30;;;;;;1611432;73;1937;-59
2021/03/07 06:35:35;;;;;;;;;;;23.40;33.40;;;;;;1613022;73;1841;-59
2021/03/07 06:37:55;;;;;;;;;;;23.40;33.40;;;;;;1616392;73;763;-59
2021/03/07 06:39:57;;;;;;;;;;;23.40;33.40;;;;;;1613962;73;1156;-59
2021/03/07 06:42:03;;;;;;;;;;;23.30;33.40;;;;;;1619112;73;750;-59
2021/03/07 06:44:17;;;;;;;;;;;23.40;33.40;;;;;;1624964;73;828;-59
2021/03/07 06:46:34;;;;;;;;;;;23.40;33.30;;;;;;1609411;73;1628;-60
2021/03/07 06:48:36;;;;;;;;;;;23.40;33.30;;;;;;1620796;73;797;-58
2021/03/07 06:50:53;;;;;;;;;;;23.40;33.30;;;;;;1618999;72;1129;-58
2021/03/07 06:52:56;;;;;;;;;;;23.40;33.30;;;;;;1618279;73;1927;-59
2021/03/07 06:55:02;;;;;;;;;;;23.40;33.30;;;;;;1623615;73;679;-60
2021/03/07 06:57:05;;;;;;;;;;;23.30;33.30;;;;;;1606501;73;1781;-60
2021/03/07 06:59:14;;;;;;;;;;;23.40;33.20;;;;;;1625328;73;1125;-60
2021/03/07 07:01:19;;;;;;;;;;;23.40;33.10;;;;;;1614167;73;1773;-60
2021/03/07 07:03:21;;;;;;;;;;;23.40;33.10;;;;;;1620119;73;756;-60
2021/03/07 07:05:25;;;;;;;;;;;23.40;33.10;;;;;;1603992;73;775;-60
2021/03/07 07:07:28;;;;;;;;;;;23.40;33.00;;;;;;1606717;73;1764;-60
2021/03/07 07:09:30;;;;;;;;;;;23.40;33.00;;;;;;1606361;73;1132;-59
2021/03/07 07:11:33;;;;;;;;;;;23.40;33.10;;;;;;1605478;73;800;-60
2021/03/07 07:13:44;;;;;;;;;;;23.40;32.90;;;;;;1618218;73;1939;-60
2021/03/07 07:15:56;;;;;;;;;;;23.40;33.00;;;;;;1615198;73;788;-58
2021/03/07 07:17:58;;;;;;;;;;;23.50;33.30;;;;;;1609461;72;775;-58
2021/03/07 07:20:00;;;;;;;;;;;23.40;33.20;;;;;;1619133;72;1156;-59
2021/03/07 07:22:02;;;;;;;;;;;23.40;33.00;;;;;;1625431;73;761;-60
2021/03/07 07:24:04;;;;;;;;;;;23.50;33.10;;;;;;1614237;73;697;-59
2021/03/07 07:26:06;;;;;;;;;;;23.50;33.40;;;;;;1618736;73;772;-61
2021/03/07 07:28:08;;;;;;;;;;;23.50;32.80;;;;;;1608312;73;716;-60
2021/03/07 07:30:10;;;;;;;;;;;23.50;32.90;;;;;;1609001;73;1139;-60
2021/03/07 07:32:25;;;;;;;;;;;23.50;32.90;;;;;;1614692;73;756;-59
2021/03/07 07:34:29;;;;;;;;;;;23.50;32.90;;;;;;1613099;73;1856;-58
2021/03/07 07:36:39;;;;;;;;;;;23.50;32.90;;;;;;1611968;73;743;-59
2021/03/07 07:38:40;;;;;;;;;;;23.60;32.80;;;;;;1619643;73;2090;-59
2021/03/07 07:40:43;;;;;;;;;;;23.50;32.50;;;;;;1621277;72;1168;-59
2021/03/07 07:42:58;;;;;;;;;;;23.50;32.30;;;;;;1617829;73;726;-59
2021/03/07 07:45:17;;;;;;;;;;;23.50;32.30;;;;;;1621020;73;1172;-57
2021/03/07 07:47:19;;;;;;;;;;;23.50;32.00;;;;;;1617669;73;688;-57
2021/03/07 07:49:36;;;;;;;;;;;23.50;32.10;;;;;;1625057;73;1165;-58
2021/03/07 07:51:39;;;;;;;;;;;23.50;32.00;;;;;;1620404;73;785;-58
2021/03/07 07:53:40;;;;;;;;;;;23.40;31.80;;;;;;1621468;73;1947;-57
2021/03/07 07:55:43;;;;;;;;;;;23.40;31.70;;;;;;1624778;73;746;-59
2021/03/07 07:57:47;;;;;;;;;;;23.50;32.00;;;;;;1622831;73;746;-58
2021/03/07 07:59:52;;;;;;;;;;;23.40;31.80;;;;;;1622379;73;1133;-57
2021/03/07 08:01:54;;;;;;;;;;;23.40;31.60;;;;;;1620851;73;706;-59
2021/03/07 08:03:56;;;;;;;;;;;23.50;31.80;;;;;;1621985;73;624;-58
2021/03/07 08:05:59;;;;;;;;;;;23.50;31.80;;;;;;1623940;73;778;-58
2021/03/07 08:08:01;;;;;;;;;;;23.50;31.80;;;;;;1618166;73;750;-58
2021/03/07 08:10:03;;;;;;;;;;;23.50;31.60;;;;;;1621907;72;1101;-59
2021/03/07 08:12:23;;;;;;;;;;;23.50;31.70;;;;;;1620183;73;772;-59
2021/03/07 08:14:35;;;;;;;;;;;23.50;31.90;;;;;;1621059;73;1910;-58
2021/03/07 08:16:40;;;;;;;;;;;23.50;31.80;;;;;;1618732;73;720;-57
2021/03/07 08:18:49;;;;;;;;;;;23.50;31.90;;;;;;1619183;72;775;-59
2021/03/07 08:20:52;;;;;;;;;;;23.50;31.90;;;;;;1621317;73;1106;-56
2021/03/07 08:23:00;;;;;;;;;;;23.60;32.20;;;;;;1621935;73;728;-58
2021/03/07 08:25:02;;;;;;;;;;;23.50;32.00;;;;;;1623112;73;766;-58
2021/03/07 08:27:04;;;;;;;;;;;23.50;32.10;;;;;;1622710;73;727;-59
2021/03/07 08:29:06;;;;;;;;;;;23.60;31.90;;;;;;1621800;72;1149;-59
2021/03/07 08:31:21;;;;;;;;;;;23.60;31.90;;;;;;1622311;73;750;-58
2021/03/07 08:33:25;;;;;;;;;;;23.60;31.90;;;;;;1624967;73;1943;-58
2021/03/07 08:35:27;;;;;;;;;;;23.60;31.80;;;;;;1620486;73;773;-60
2021/03/07 08:37:30;;;;;;;;;;;23.60;31.80;;;;;;1621632;73;953;-59
2021/03/07 08:39:32;;;;;;;;;;;23.60;31.80;;;;;;1624558;73;1189;-59
2021/03/07 08:41:38;;;;;;;;;;;23.60;31.80;;;;;;1622824;73;672;-58
2021/03/07 08:43:42;;;;;;;;;;;23.60;31.80;;;;;;1623729;73;737;-58
2021/03/07 08:46:00;;;;;;;;;;;23.60;31.70;;;;;;1623112;73;735;-56
2021/03/07 08:48:01;;;;;;;;;;;23.60;31.80;;;;;;1620673;73;799;-58
2021/03/07 08:50:06;;;;;;;;;;;23.60;31.70;;;;;;1620928;72;1125;-58
2021/03/07 08:52:09;;;;;;;;;;;23.60;31.80;;;;;;1620954;73;733;-58
2021/03/07 08:54:12;;;;;;;;;;;23.60;31.70;;;;;;1618387;73;1928;-58
2021/03/07 08:56:14;;;;;;;;;;;23.60;31.70;;;;;;1619811;73;723;-59
2021/03/07 08:58:16;;;;;;;;;;;23.60;32.20;;;;;;1614509;73;711;-59
2021/03/07 09:00:18;;;;;;;;;;;23.60;31.90;;;;;;1619864;73;1106;-57
2021/03/07 09:02:20;;;;;;;;;;;23.60;32.10;;;;;;1620380;73;683;-57
2021/03/07 09:04:22;;;;;;;;;;;23.60;32.50;;;;;;1622739;73;768;-57
2021/03/07 09:06:28;;;;;;;;;;;23.60;32.30;;;;;;1619755;73;720;-58
2021/03/07 09:08:30;;;;;;;;;;;23.60;32.30;;;;;;1620496;73;704;-57
2021/03/07 09:10:32;;;;;;;;;;;23.60;32.30;;;;;;1624621;72;1168;-55
2021/03/07 09:12:37;;;;;;;;;;;23.60;32.30;;;;;;1621502;73;735;-58
2021/03/07 09:14:38;;;;;;;;;;;23.60;32.20;;;;;;1620188;73;1939;-56
2021/03/07 09:16:41;;;;;;;;;;;23.60;32.20;;;;;;1619897;73;810;-58
2021/03/07 09:18:43;;;;;;;;;;;23.60;32.10;;;;;;1624072;72;697;-57
2021/03/07 09:20:48;;;;;;;;;;;23.60;32.10;;;;;;1619099;72;1141;-58
2021/03/07 09:22:50;;;;;;;;;;;23.70;32.10;;;;;;1621309;73;700;-58
2021/03/07 09:24:56;;;;;;;;;;;23.60;32.00;;;;;;1623778;73;674;-55
2021/03/07 09:27:00;;;;;;;;;;;23.70;32.10;;;;;;1621457;73;737;-56
2021/03/07 09:29:02;;;;;;;;;;;23.70;32.30;;;;;;1622395;73;1874;-57
2021/03/07 09:31:08;;;;;;;;;;;23.60;32.00;;;;;;1615179;73;705;-58
2021/03/07 09:33:11;;;;;;;;;;;23.70;32.10;;;;;;1603303;73;1903;-57
2021/03/07 09:35:20;;;;;;;;;;;23.70;32.20;;;;;;1624278;73;805;-56
2021/03/07 09:37:22;;;;;;;;;;;23.70;32.10;;;;;;1625124;73;742;-58
2021/03/07 09:39:24;;;;;;;;;;;23.70;32.20;;;;;;1620716;73;1154;-58
2021/03/07 09:41:39;;;;;;;;;;;23.70;32.10;;;;;;1623531;73;693;-59
2021/03/07 09:43:41;;;;;;;;;;;23.70;32.10;;;;;;1609106;73;798;-59
2021/03/07 09:45:46;;;;;;;;;;;23.70;32.00;;;;;;1620853;73;615;-59
2021/03/07 09:47:49;;;;;;;;;;;23.70;32.10;;;;;;1613821;73;681;-59
2021/03/07 09:49:52;;;;;;;;;;;23.70;32.00;;;;;;1620917;73;1152;-57
2021/03/07 09:51:54;;;;;;;;;;;23.70;31.90;;;;;;1619744;73;750;-59
2021/03/07 09:53:55;;;;;;;;;;;23.70;31.80;;;;;;1622147;73;1935;-59
2021/03/07 09:55:57;;;;;;;;;;;23.60;31.70;;;;;;1610880;73;776;-58
2021/03/07 09:58:04;;;;;;;;;;;23.70;31.80;;;;;;1620882;73;785;-58
2021/03/07 10:00:06;;;;;;;;;;;23.70;31.80;;;;;;1619323;73;1133;-59
2021/03/07 10:02:08;;;;;;;;;;;23.70;31.80;;;;;;1617112;73;818;-59
2021/03/07 10:04:26;;;;;;;;;;;23.60;31.60;;;;;;1620147;73;696;-58
2021/03/07 10:06:30;;;;;;;;;;;23.70;31.70;;;;;;1617439;73;737;-59
2021/03/07 10:08:33;;;;;;;;;;;23.60;31.60;;;;;;1615217;73;748;-59
2021/03/07 10:10:35;;;;;;;;;;;23.60;31.60;;;;;;1617581;73;1185;-58
2021/03/07 10:12:42;;;;;;;;;;;23.60;31.60;;;;;;1622394;73;697;-58
2021/03/07 10:14:44;;;;;;;;;;;23.60;31.60;;;;;;1620192;73;1935;-58
2021/03/07 10:16:47;;;;;;;;;;;23.60;31.70;;;;;;1579518;73;1153;-59
2021/03/07 10:18:51;;;;;;;;;;;23.60;31.70;;;;;;1615368;73;1514;-59
2021/03/07 10:20:54;;;;;;;;;;;23.60;31.50;;;;;;1609270;73;1506;-60
2021/03/07 10:22:56;;;;;;;;;;;23.60;31.50;;;;;;1614445;73;2093;-59
2021/03/07 10:24:58;;;;;;;;;;;23.60;31.50;;;;;;1606141;73;740;-59
2021/03/07 10:27:01;;;;;;;;;;;23.60;31.50;;;;;;1619656;73;791;-57
2021/03/07 10:29:11;;;;;;;;;;;23.50;31.50;;;;;;1622645;72;1133;-59
2021/03/07 10:31:13;;;;;;;;;;;23.50;31.50;;;;;;1593785;73;1038;-57
2021/03/07 10:33:25;;;;;;;;;;;23.50;31.60;;;;;;1618583;73;1925;-58
2021/03/07 10:35:27;;;;;;;;;;;23.50;31.50;;;;;;1615094;73;780;-59
2021/03/07 10:37:35;;;;;;;;;;;23.50;31.60;;;;;;1610411;73;924;-58
2021/03/07 10:39:37;;;;;;;;;;;23.50;31.60;;;;;;1622886;72;1067;-58
2021/03/07 10:41:39;;;;;;;;;;;23.50;31.70;;;;;;1609292;73;670;-58
2021/03/07 10:43:46;;;;;;;;;;;23.50;31.70;;;;;;1619702;73;702;-57
2021/03/07 10:45:47;;;;;;;;;;;23.50;31.70;;;;;;1609146;73;1869;-58
2021/03/07 10:48:03;;;;;;;;;;;23.50;31.80;;;;;;1619944;73;746;-58
2021/03/07 10:50:06;;;;;;;;;;;23.50;31.80;;;;;;1611711;73;1820;-57
2021/03/07 10:52:07;;;;;;;;;;;23.50;31.80;;;;;;1609516;73;768;-58
2021/03/07 10:54:09;;;;;;;;;;;23.50;31.80;;;;;;1596021;73;1931;-59
2021/03/07 10:56:11;;;;;;;;;;;23.50;31.90;;;;;;1608795;73;736;-59
2021/03/07 10:58:13;;;;;;;;;;;23.50;31.90;;;;;;1626570;73;761;-57
2021/03/07 11:00:15;;;;;;;;;;;23.50;32.00;;;;;;1619824;73;1145;-58
2021/03/07 11:02:17;;;;;;;;;;;23.50;32.00;;;;;;1613959;73;712;-59
2021/03/07 11:04:19;;;;;;;;;;;23.50;32.10;;;;;;1608118;73;801;-58
2021/03/07 11:06:21;;;;;;;;;;;23.50;32.20;;;;;;1602636;73;793;-59
2021/03/07 11:08:23;;;;;;;;;;;23.50;32.20;;;;;;1615351;73;748;-59
2021/03/07 11:10:25;;;;;;;;;;;23.50;32.30;;;;;;1601902;73;1147;-59
2021/03/07 11:12:27;;;;;;;;;;;23.50;32.30;;;;;;1621353;73;790;-57
2021/03/07 11:14:28;;;;;;;;;;;23.50;32.30;;;;;;1612285;73;1943;-59
2021/03/07 11:16:30;;;;;;;;;;;23.50;32.40;;;;;;1615757;73;762;-60
2021/03/07 11:18:32;;;;;;;;;;;23.50;32.40;;;;;;1610933;72;735;-59
2021/03/07 11:20:34;;;;;;;;;;;23.50;32.50;;;;;;1623265;73;1102;-58
2021/03/07 11:22:36;;;;;;;;;;;23.50;32.50;;;;;;1619032;73;695;-58
2021/03/07 11:24:38;;;;;;;;;;;23.50;32.40;;;;;;1619697;73;790;-56
2021/03/07 11:26:40;;;;;;;;;;;23.50;32.50;;;;;;1616577;73;832;-59
2021/03/07 11:28:42;;;;;;;;;;;23.50;32.60;;;;;;1613773;73;746;-56
2021/03/07 11:30:43;;;;;;;;;;;23.50;32.50;;;;;;1621098;72;1125;-60
2021/03/07 11:32:45;;;;;;;;;;;23.50;32.70;;;;;;1625498;73;891;-56
2021/03/07 11:34:47;;;;;;;;;;;23.60;32.90;;;;;;1620458;73;1923;-59
2021/03/07 11:36:49;;;;;;;;;;;23.70;33.10;;;;;;1620323;73;781;-60
2021/03/07 11:38:51;;;;;;;;;;;23.60;33.40;;;;;;1621000;72;820;-58
2021/03/07 11:40:53;;;;;;;;;;;23.60;33.40;;;;;;1624925;72;1160;-57
2021/03/07 11:42:56;;;;;;;;;;;23.70;33.70;;;;;;1621175;73;755;-59
2021/03/07 11:44:58;;;;;;;;;;;23.60;33.60;;;;;;1624326;73;650;-58
2021/03/07 11:46:59;;;;;;;;;;;23.60;33.70;;;;;;1624408;73;748;-59
2021/03/07 11:49:01;;;;;;;;;;;23.70;33.60;;;;;;1621873;72;1152;-59
2021/03/07 11:51:03;;;;;;;;;;;23.70;33.40;;;;;;1616025;73;808;-57
2021/03/07 11:53:05;;;;;;;;;;;23.80;33.10;;;;;;1625917;73;749;-57
2021/03/07 11:55:07;;;;;;;;;;;23.80;32.80;;;;;;1614422;73;1925;-59
2021/03/07 11:57:09;;;;;;;;;;;23.80;32.90;;;;;;1625150;73;760;-59
2021/03/07 11:59:11;;;;;;;;;;;23.80;32.60;;;;;;1617619;73;1123;-58
2021/03/07 12:01:13;;;;;;;;;;;23.80;32.50;;;;;;1626435;73;708;-56
2021/03/07 12:03:15;;;;;;;;;;;23.80;32.30;;;;;;1621875;73;808;-58
2021/03/07 12:05:17;;;;;;;;;;;23.90;31.90;;;;;;1619081;73;789;-57
2021/03/07 12:07:19;;;;;;;;;;;23.90;31.80;;;;;;1625750;73;654;-59
2021/03/07 12:09:21;;;;;;;;;;;23.80;31.30;;;;;;1623046;72;1121;-59
2021/03/07 12:11:23;;;;;;;;;;;23.80;30.00;;;;;;1625224;73;724;-59
2021/03/07 12:13:24;;;;;;;;;;;23.80;30.50;;;;;;1625820;73;781;-58
2021/03/07 12:15:26;;;;;;;;;;;23.80;30.70;;;;;;1621208;73;1929;-58